Higgins, TX (79046)

04:43 AM CST del 21 Dicembre 2014 (GMT -0600)
Barnes - Farm | Change Station
CLOSE
Current Station
Stazione meteo personale
Location: Gage, OK
Altitudine: 2220 ft
Stazioni meteo nelle vicinanze

Alt. 2220 ft 36.28 °N, 99.80 °W | Updated 6 seconds ago

Coperto
Coperto
41.6 °F
Sembra 35 °F
N
12.0
Vento Variabile Vento da SSE
Gusts 17.0 mph

Oggi
Massima -- | Minima -- °F
--% Possibilità di precip.
Ieri
Massima -- | Minima -- °F
Precip. -- in
7:47 AM 5:29 PM
Luna calante, 1% visible
Pressione 29.94 in
Visibilità 6.0 miglia
Nuvole Coperto 600 ft
Raffreddamento del vento 35 °F
Punto di rugiada 40 °F
Umidità 95%
Piovosità 0.00 in
Spessore del manto nevoso Non disponibile.
Raggi UV 0.0 fuori da 12
Polline 6.90 fuori da 12
Qualità dell'aria Non disponibile.
Flu Activity Non disponibile.
SPECI KGAG 211030Z AUTO 17014G19KT 6SM BR OVC006 05/04 A2994 RMK AO2 T00500044

More Conditions Fewer Conditions

Pressione 29.94 in
Visibilità 6.0 miglia
Nuvole Coperto 600 ft
Raffreddamento del vento 35 °F
Punto di rugiada 40 °F
Umidità 95%
Piovosità 0.00 in
Spessore del manto nevoso Non disponibile.
Raggi UV 0.0 fuori da 12
Polline 6.90 fuori da 12
Qualità dell'aria Non disponibile.
Flu Activity Non disponibile.
SPECI KGAG 211030Z AUTO 17014G19KT 6SM BR OVC006 05/04 A2994 RMK AO2 T00500044

More Conditions Fewer Conditions

Nowcast | as of 4:24 am CST on December 21, 2014

Areas of patchy fog will impact the much of the Texas and Oklahoma panhandles through 8 am this morning. Visibilities will generally range between 2 to 5 miles with isolated spots dropping as low as one quarter mile. Use caution when traveling this morning as visibilities can vary greatly over short distances.

×

10-Day Weather Forecast

Almanac

Astronomia

Dec. 21, 2014 Alba Tramonto
Ora attuale
Crepuscolo civile
Crepuscolo nautico
Crepuscolo astronomico
Luna
Estensione della luce visibile
Lunghezza del giorno
Tomorrow will be .
, % of the Moon is Illuminated

Gli estremi di oggi

State Highs State Lows

Community

WunderPhotos

Upload Photos

1,779,367 foto caricate!

WunderBlogs® & News

Nearby

Qualità dell'aria

  Qualità dell'aria Indice AQ Inquinante
Not available.

Profondità neve

Stazione Profondità Altitudine

Attività sismica

Città  Distanza Mag. Data & Ora
Minimo Magnitudo Mostrato è 2.5.

Temperature delle acque costiere

Località Temperatura

Stazioni meteo nelle vicinanze